createdAt,value
2023-01-12T00:02:24.992Z,5.55
2023-01-12T00:04:53.154Z,4.78
2023-01-12T00:07:21.668Z,5.43
2023-01-12T00:09:51.422Z,3.95
2023-01-12T00:12:19.737Z,3.00
2023-01-12T00:14:48.011Z,3.90
2023-01-12T00:17:19.283Z,3.05
2023-01-12T00:19:48.106Z,4.28
2023-01-12T00:22:19.275Z,5.40
2023-01-12T00:24:50.265Z,4.72
2023-01-12T00:27:21.056Z,4.20
2023-01-12T00:29:49.503Z,4.05
2023-01-12T00:32:21.079Z,4.50
2023-01-12T00:34:49.651Z,3.95
2023-01-12T00:37:19.620Z,4.15
2023-01-12T00:45:35.538Z,4.40
2023-01-12T00:48:04.037Z,4.32
2023-01-12T00:50:32.471Z,4.57
2023-01-12T00:53:01.243Z,5.30
2023-01-12T00:55:29.773Z,4.53
2023-01-12T01:06:18.564Z,6.05
2023-01-12T01:08:46.844Z,6.05
2023-01-12T01:11:15.930Z,5.15
2023-01-12T01:13:46.199Z,5.00
2023-01-12T01:16:17.848Z,4.68
2023-01-12T01:18:46.460Z,4.80
2023-01-12T01:21:15.779Z,5.65
2023-01-12T01:23:44.493Z,4.20
2023-01-12T01:26:16.882Z,4.45
2023-01-12T01:28:47.837Z,4.53
2023-01-12T01:31:19.415Z,5.07
2023-01-12T01:33:48.213Z,4.82
2023-01-12T01:36:17.371Z,3.70
2023-01-12T01:38:46.201Z,4.47
2023-01-12T01:44:51.592Z,4.85
2023-01-12T01:58:55.153Z,4.00
2023-01-12T02:01:25.942Z,5.53
2023-01-12T02:03:57.136Z,4.63
2023-01-12T02:06:27.019Z,3.50
2023-01-12T02:08:59.840Z,3.60
2023-01-12T02:11:46.047Z,4.13
2023-01-12T02:14:32.129Z,4.47
2023-01-12T02:17:17.870Z,4.80
2023-01-12T02:20:29.969Z,3.80
2023-01-12T02:24:08.905Z,5.43
2023-01-12T02:27:23.742Z,4.53
2023-01-12T02:30:52.817Z,3.67
2023-01-12T02:33:39.388Z,3.97
2023-01-12T02:36:19.010Z,4.13
2023-01-12T02:38:57.434Z,3.75
2023-01-12T02:41:53.087Z,3.20
2023-01-12T02:44:29.064Z,3.88
2023-01-12T02:47:01.874Z,5.40
2023-01-12T02:49:37.901Z,4.68
2023-01-12T02:52:11.244Z,3.67
2023-01-12T02:54:43.100Z,3.58
2023-01-12T02:57:12.335Z,3.78
2023-01-12T02:59:45.325Z,4.30
2023-01-12T03:02:18.105Z,3.78
2023-01-12T03:04:48.111Z,4.10
2023-01-12T03:07:43.601Z,3.15
2023-01-12T03:10:36.838Z,3.63
2023-01-12T03:13:10.165Z,3.75
2023-01-12T03:15:49.711Z,3.40
2023-01-12T03:18:24.035Z,3.47
2023-01-12T03:20:59.649Z,4.03
2023-01-12T03:23:37.502Z,3.85
2023-01-12T03:26:08.162Z,3.40
2023-01-12T03:28:43.357Z,4.22
2023-01-12T03:31:15.442Z,3.55
2023-01-12T03:33:46.691Z,2.75
2023-01-12T03:36:28.663Z,3.55
2023-01-12T03:39:14.952Z,3.03
2023-01-12T03:41:56.398Z,3.53
2023-01-12T03:44:33.855Z,4.18
2023-01-12T03:47:08.532Z,3.22
2023-01-12T03:49:45.058Z,2.78
2023-01-12T03:52:15.531Z,3.33
2023-01-12T03:54:46.794Z,2.78
2023-01-12T03:57:16.977Z,3.10
2023-01-12T03:59:45.497Z,3.47
2023-01-12T04:02:14.403Z,2.72
2023-01-12T04:04:42.825Z,2.88
2023-01-12T04:07:11.655Z,3.35
2023-01-12T04:09:41.249Z,2.38
2023-01-12T04:12:14.015Z,2.13
2023-01-12T04:14:47.684Z,2.95
2023-01-12T04:17:17.281Z,2.70
2023-01-12T04:19:45.520Z,3.10
2023-01-12T04:22:34.929Z,2.97
2023-01-12T04:25:07.933Z,2.72
2023-01-12T04:27:37.748Z,2.58
2023-01-12T04:30:07.746Z,2.53
2023-01-12T04:32:36.241Z,2.33
2023-01-12T04:35:05.334Z,3.20
2023-01-12T04:37:34.417Z,2.88
2023-01-12T04:40:04.259Z,3.20
2023-01-12T04:42:50.419Z,2.58
2023-01-12T04:45:19.137Z,2.10
2023-01-12T04:47:48.016Z,3.03
2023-01-12T04:50:16.812Z,2.03
2023-01-12T04:52:45.241Z,2.90
2023-01-12T04:55:14.949Z,2.10
2023-01-12T04:57:43.206Z,1.83
2023-01-12T05:00:13.182Z,2.30
2023-01-12T05:02:41.488Z,2.30
2023-01-12T05:05:10.475Z,1.73
2023-01-12T05:07:58.811Z,2.17
2023-01-12T05:10:27.779Z,1.67
2023-01-12T05:12:55.967Z,2.00
2023-01-12T05:15:24.706Z,1.95
2023-01-12T05:17:54.478Z,2.05
2023-01-12T05:20:23.282Z,1.85
2023-01-12T05:22:52.791Z,2.28
2023-01-12T05:25:21.026Z,2.75
2023-01-12T05:27:51.120Z,1.70
2023-01-12T05:30:20.625Z,2.53
2023-01-12T05:32:49.879Z,2.22
2023-01-12T05:35:18.196Z,2.38
2023-01-12T05:37:46.977Z,2.88
2023-01-12T05:40:15.878Z,2.53
2023-01-12T05:43:01.768Z,2.78
2023-01-12T05:45:31.430Z,2.42
2023-01-12T05:48:01.961Z,3.67
2023-01-12T05:50:30.501Z,2.28
2023-01-12T05:53:11.511Z,2.40
2023-01-12T05:55:40.818Z,2.00
2023-01-12T05:58:09.736Z,2.70
2023-01-12T06:00:39.349Z,2.72
2023-01-12T06:03:07.655Z,2.45
2023-01-12T06:05:35.961Z,2.38
2023-01-12T06:08:04.288Z,1.88
2023-01-12T06:10:34.374Z,2.70
2023-01-12T06:13:19.985Z,2.35
2023-01-12T06:15:49.698Z,2.20
2023-01-12T06:18:19.066Z,3.13
2023-01-12T06:20:47.390Z,2.53
2023-01-12T06:23:16.085Z,2.30
2023-01-12T06:25:44.370Z,2.50
2023-01-12T06:28:13.881Z,2.85
2023-01-12T06:30:42.445Z,2.60
2023-01-12T06:33:13.482Z,2.53
2023-01-12T06:35:48.603Z,3.10
2023-01-12T06:38:18.960Z,2.78
2023-01-12T06:40:47.541Z,2.90
2023-01-12T06:43:16.100Z,2.50
2023-01-12T06:45:44.861Z,2.70
2023-01-12T06:48:14.493Z,3.00
2023-01-12T06:50:43.169Z,2.40
2023-01-12T06:53:11.479Z,3.08
2023-01-12T06:55:39.952Z,2.88
2023-01-12T06:58:08.602Z,3.55
2023-01-12T07:00:36.934Z,3.08
2023-01-12T07:03:05.254Z,3.22
2023-01-12T07:05:35.496Z,3.40
2023-01-12T07:08:07.286Z,3.30
2023-01-12T07:10:37.421Z,3.53
2023-01-12T07:13:05.716Z,2.63
2023-01-12T07:15:34.451Z,3.70
2023-01-12T07:18:02.618Z,2.92
2023-01-12T07:20:32.264Z,2.55
2023-01-12T07:23:02.055Z,2.50
2023-01-12T07:25:30.431Z,2.40
2023-01-12T07:28:06.675Z,2.15
2023-01-12T07:30:35.102Z,3.10
2023-01-12T07:33:09.122Z,2.65
2023-01-12T07:35:37.355Z,2.85
2023-01-12T07:38:07.160Z,2.72
2023-01-12T07:40:36.668Z,2.47
2023-01-12T07:43:07.800Z,3.17
2023-01-12T07:45:37.743Z,2.63
2023-01-12T07:48:06.662Z,2.30
2023-01-12T07:50:36.824Z,2.50
2023-01-12T07:53:06.619Z,2.83
2023-01-12T07:55:35.068Z,2.35
2023-01-12T07:58:04.638Z,2.63
2023-01-12T08:00:33.099Z,2.15
2023-01-12T08:03:07.585Z,2.30
2023-01-12T08:05:36.685Z,1.70
2023-01-12T08:08:08.874Z,2.65
2023-01-12T08:10:38.049Z,1.80
2023-01-12T08:13:06.309Z,2.10
2023-01-12T08:15:46.024Z,2.45
2023-01-12T08:18:22.840Z,2.20
2023-01-12T08:20:56.543Z,2.35
2023-01-12T08:23:32.667Z,1.90
2023-01-12T08:26:07.854Z,1.55
2023-01-12T08:28:43.199Z,1.98
2023-01-12T08:31:13.980Z,1.80
2023-01-12T08:33:43.318Z,2.20
2023-01-12T08:36:15.946Z,1.67
2023-01-12T08:41:31.220Z,1.98
2023-01-12T08:44:06.002Z,1.80
2023-01-12T08:46:36.909Z,1.75
2023-01-12T08:49:10.095Z,2.25
2023-01-12T08:51:39.429Z,1.73
2023-01-12T08:54:10.854Z,2.28
2023-01-12T08:56:39.341Z,2.00
2023-01-12T08:59:08.165Z,2.00
2023-01-12T09:01:36.880Z,2.88
2023-01-12T09:04:07.058Z,1.45
2023-01-12T09:06:39.962Z,1.83
2023-01-12T09:09:11.890Z,1.98
2023-01-12T09:11:42.378Z,1.55
2023-01-12T09:14:11.118Z,2.30
2023-01-12T09:16:39.853Z,1.58
2023-01-12T09:19:09.276Z,1.40
2023-01-12T09:21:40.323Z,1.50
2023-01-12T09:24:11.420Z,1.90
2023-01-12T09:26:41.925Z,1.92
2023-01-12T09:29:12.574Z,1.38
2023-01-12T09:31:44.205Z,1.70
2023-01-12T09:34:12.733Z,2.17
2023-01-12T09:36:42.717Z,1.40
2023-01-12T09:39:27.270Z,1.58
2023-01-12T09:42:15.680Z,1.90
2023-01-12T09:45:03.510Z,1.75
2023-01-12T09:47:39.286Z,1.55
2023-01-12T09:50:11.732Z,1.92
2023-01-12T09:52:45.606Z,1.90
2023-01-12T09:55:20.437Z,1.83
2023-01-12T09:58:30.416Z,1.80
2023-01-12T10:01:00.813Z,1.70
2023-01-12T10:03:35.674Z,2.22
2023-01-12T10:06:04.176Z,2.95
2023-01-12T10:08:37.458Z,1.90
2023-01-12T10:11:16.624Z,1.85
2023-01-12T10:14:19.422Z,2.08
2023-01-12T10:17:03.039Z,1.80
2023-01-12T10:19:41.969Z,2.03
2023-01-12T10:22:36.945Z,1.63
2023-01-12T10:25:20.545Z,1.73
2023-01-12T10:27:53.619Z,2.50
2023-01-12T10:30:31.535Z,1.83
2023-01-12T10:33:10.545Z,1.70
2023-01-12T10:35:52.524Z,1.50
2023-01-12T10:38:28.400Z,1.90
2023-01-12T10:41:18.267Z,1.73
2023-01-12T10:44:16.051Z,1.48
2023-01-12T10:46:44.286Z,1.48
2023-01-12T10:49:21.358Z,1.65
2023-01-12T10:51:56.150Z,1.60
2023-01-12T10:54:27.380Z,1.75
2023-01-12T10:57:00.836Z,1.90
2023-01-12T10:59:34.028Z,1.83
2023-01-12T11:02:17.239Z,1.85
2023-01-12T11:04:47.506Z,2.00
2023-01-12T11:07:18.920Z,1.30
2023-01-12T11:09:48.321Z,1.60
2023-01-12T11:12:29.612Z,1.50
2023-01-12T11:15:19.391Z,1.73
2023-01-12T11:18:07.560Z,2.00
2023-01-12T11:20:42.397Z,1.40
2023-01-12T11:23:17.570Z,1.85
2023-01-12T11:25:48.660Z,2.15
2023-01-12T11:28:23.203Z,2.45
2023-01-12T11:30:57.761Z,2.00
2023-01-12T11:33:32.325Z,1.65
2023-01-12T11:36:06.284Z,2.25
2023-01-12T11:38:40.886Z,1.70
2023-01-12T11:41:14.374Z,2.17
2023-01-12T11:43:52.307Z,1.60
2023-01-12T11:46:27.752Z,1.42
2023-01-12T11:49:10.837Z,2.00
2023-01-12T11:51:39.355Z,1.48
2023-01-12T11:54:08.812Z,2.00
2023-01-12T11:57:07.743Z,1.48
2023-01-12T11:59:44.276Z,1.58
2023-01-12T12:02:29.658Z,1.48
2023-01-12T12:05:11.551Z,1.92
2023-01-12T12:08:00.582Z,1.55
2023-01-12T12:10:38.384Z,1.15
2023-01-12T12:13:29.276Z,1.20
2023-01-12T12:16:16.116Z,1.38
2023-01-12T12:19:03.185Z,1.25
2023-01-12T12:21:58.220Z,1.13
2023-01-12T12:25:00.957Z,1.67
2023-01-12T12:27:49.231Z,1.13
2023-01-12T12:30:59.255Z,1.25
2023-01-12T12:33:51.822Z,1.20
2023-01-12T12:36:28.259Z,1.58
2023-01-12T12:39:33.569Z,1.67
2023-01-12T12:42:30.779Z,1.63
2023-01-12T12:45:18.921Z,1.58
2023-01-12T12:48:06.923Z,1.05
2023-01-12T12:50:44.117Z,1.33
2023-01-12T12:53:22.638Z,1.50
2023-01-12T12:55:53.731Z,1.60
2023-01-12T12:58:45.936Z,1.48
2023-01-12T13:01:43.309Z,2.13
2023-01-12T13:04:14.223Z,1.38
2023-01-12T13:06:48.674Z,1.00
2023-01-12T13:09:38.521Z,1.50
2023-01-12T13:12:30.804Z,1.38
2023-01-12T13:15:26.351Z,1.08
2023-01-12T13:17:55.728Z,1.00
2023-01-12T13:20:54.427Z,1.33
2023-01-12T13:23:52.536Z,1.70
2023-01-12T13:26:40.419Z,1.30
2023-01-12T13:29:40.827Z,1.13
2023-01-12T13:32:41.237Z,1.40
2023-01-12T13:36:07.161Z,1.50
2023-01-12T13:39:13.316Z,1.00
2023-01-12T13:42:02.276Z,1.10
2023-01-12T13:44:38.623Z,1.15
2023-01-12T13:47:11.518Z,1.25
2023-01-12T13:49:48.235Z,1.40
2023-01-12T13:52:29.068Z,1.30
2023-01-12T13:54:59.051Z,1.00
2023-01-12T13:57:29.909Z,1.00
2023-01-12T14:00:00.650Z,1.13
2023-01-12T14:02:33.249Z,1.10
2023-01-12T14:08:25.770Z,1.10
2023-01-12T14:11:10.545Z,0.80
2023-01-12T14:14:23.369Z,0.80
2023-01-12T14:17:16.037Z,1.20
2023-01-12T14:19:51.229Z,1.13
2023-01-12T14:22:21.353Z,1.08
2023-01-12T14:24:49.658Z,1.20
2023-01-12T14:27:25.020Z,1.17
2023-01-12T14:29:58.460Z,1.02
2023-01-12T14:32:27.188Z,1.00
2023-01-12T14:34:55.465Z,0.80
2023-01-12T14:37:30.291Z,0.93
2023-01-12T14:39:58.679Z,1.08
2023-01-12T14:42:46.482Z,1.35
2023-01-12T14:45:42.503Z,0.68
2023-01-12T14:48:25.703Z,0.90
2023-01-12T14:51:18.511Z,0.88
2023-01-12T14:53:49.087Z,1.70
2023-01-12T14:56:22.749Z,1.30
2023-01-12T14:58:52.991Z,1.33
2023-01-12T15:01:34.572Z,1.00
2023-01-12T15:04:04.029Z,1.10
2023-01-12T15:06:38.049Z,0.90
2023-01-12T15:09:10.854Z,1.00
2023-01-12T15:11:40.019Z,0.90
2023-01-12T15:14:24.871Z,0.90
2023-01-12T15:17:11.449Z,1.17
2023-01-12T15:19:57.656Z,0.80
2023-01-12T15:22:46.442Z,1.05
2023-01-12T15:25:36.719Z,1.23
2023-01-12T15:28:07.899Z,1.02
2023-01-12T15:30:39.285Z,1.25
2023-01-12T15:33:08.009Z,1.17
2023-01-12T15:35:46.817Z,0.98
2023-01-12T15:38:17.977Z,0.93
2023-01-12T15:40:47.889Z,1.00
2023-01-12T15:43:18.268Z,0.80
2023-01-12T15:45:48.923Z,1.00
2023-01-12T15:48:17.399Z,1.00
2023-01-12T15:50:47.367Z,1.00
2023-01-12T15:53:22.203Z,1.50
2023-01-12T15:55:50.673Z,1.00
2023-01-12T15:58:19.574Z,1.00
2023-01-12T16:00:49.287Z,1.00
2023-01-12T16:03:48.991Z,1.33
2023-01-12T16:06:07.193Z,1.30
2023-01-12T16:08:35.587Z,1.42
2023-01-12T16:11:12.221Z,1.17
2023-01-12T16:13:40.915Z,0.98
2023-01-12T16:16:15.849Z,1.25
2023-01-12T16:18:44.087Z,1.10
2023-01-12T16:21:17.476Z,0.85
2023-01-12T16:23:46.353Z,1.30
2023-01-12T16:26:14.609Z,1.08
2023-01-12T16:28:42.982Z,1.08
2023-01-12T16:31:15.125Z,1.10
2023-01-12T16:33:44.770Z,1.05
2023-01-12T16:36:15.128Z,1.10
2023-01-12T16:38:43.460Z,1.25
2023-01-12T16:41:14.848Z,1.35
2023-01-12T16:43:43.762Z,1.00
2023-01-12T16:46:14.251Z,1.20
2023-01-12T16:48:43.137Z,1.20
2023-01-12T16:51:12.783Z,1.15
2023-01-12T16:53:42.144Z,1.42
2023-01-12T16:56:14.551Z,1.20
2023-01-12T17:03:47.840Z,1.33
2023-01-12T17:06:18.634Z,2.47
2023-01-12T17:08:46.914Z,1.05
2023-01-12T17:11:19.553Z,1.52
2023-01-12T17:13:52.380Z,2.95
2023-01-12T17:16:23.939Z,1.30
2023-01-12T17:18:52.555Z,1.10
2023-01-12T17:21:22.462Z,1.55
2023-01-12T17:23:50.943Z,1.35
2023-01-12T17:26:20.065Z,1.60
2023-01-12T17:28:48.803Z,1.70
2023-01-12T17:31:20.393Z,1.67
2023-01-12T17:33:51.796Z,2.07
2023-01-12T17:36:20.108Z,2.63
2023-01-12T17:38:48.417Z,1.30
2023-01-12T17:41:44.003Z,1.50
2023-01-12T17:44:12.660Z,1.50
2023-01-12T17:46:41.649Z,1.30
2023-01-12T17:49:12.423Z,1.20
2023-01-12T17:51:41.914Z,1.40
2023-01-12T17:54:15.401Z,0.90
2023-01-12T17:56:44.570Z,1.20
2023-01-12T17:59:18.692Z,1.00
2023-01-12T18:01:48.552Z,1.10
2023-01-12T18:04:18.940Z,1.20
2023-01-12T18:06:47.759Z,1.20
2023-01-12T18:09:15.971Z,1.30
2023-01-12T18:11:44.192Z,1.20
2023-01-12T18:14:12.704Z,1.48
2023-01-12T18:16:40.911Z,1.27
2023-01-12T18:19:10.762Z,1.50
2023-01-12T18:21:40.342Z,0.90
2023-01-12T18:24:08.903Z,1.20
2023-01-12T18:26:37.198Z,1.25
2023-01-12T18:29:06.855Z,1.08
2023-01-12T18:31:37.488Z,1.08
2023-01-12T18:34:07.752Z,1.45
2023-01-12T18:36:38.824Z,1.02
2023-01-12T18:39:13.078Z,1.20
2023-01-12T18:41:59.109Z,1.63
2023-01-12T18:44:27.679Z,1.20
2023-01-12T18:47:16.447Z,1.48
2023-01-12T18:49:46.130Z,1.30
2023-01-12T18:52:35.119Z,1.55
2023-01-12T18:55:07.782Z,1.27
2023-01-12T19:00:15.530Z,0.98
2023-01-12T19:02:44.067Z,1.33
2023-01-12T19:05:20.399Z,1.65
2023-01-12T19:08:45.536Z,3.42
2023-01-12T19:12:01.015Z,1.20
2023-01-12T19:14:47.511Z,1.25
2023-01-12T19:17:33.299Z,3.50
2023-01-12T19:20:15.523Z,2.17
2023-01-12T19:23:32.939Z,1.33
2023-01-12T19:26:20.124Z,2.35
2023-01-12T19:28:54.920Z,1.13
2023-01-12T19:31:43.551Z,1.00
2023-01-12T19:34:24.637Z,0.70
2023-01-12T19:36:56.284Z,1.35
2023-01-12T19:39:38.398Z,1.40
2023-01-12T19:42:24.688Z,1.08
2023-01-12T19:44:54.823Z,0.93
2023-01-12T19:47:24.446Z,1.00
2023-01-12T19:49:52.911Z,1.40
2023-01-12T19:52:24.137Z,0.88
2023-01-12T19:54:56.044Z,1.00
2023-01-12T19:57:27.085Z,1.17
2023-01-12T19:59:57.249Z,1.38
2023-01-12T20:02:30.258Z,1.00
2023-01-12T20:04:59.013Z,1.13
2023-01-12T20:07:29.387Z,1.65
2023-01-12T20:09:59.792Z,1.20
2023-01-12T20:12:30.438Z,1.15
2023-01-12T20:15:06.217Z,0.80
2023-01-12T20:17:35.884Z,1.10
2023-01-12T20:20:08.237Z,1.30
2023-01-12T20:22:37.305Z,1.05
2023-01-12T20:25:10.744Z,1.52
2023-01-12T20:27:41.845Z,1.00
2023-01-12T20:30:16.370Z,1.33
2023-01-12T20:32:47.380Z,1.00
2023-01-12T20:35:20.384Z,1.17
2023-01-12T20:37:49.438Z,0.98
2023-01-12T20:40:20.983Z,1.00
2023-01-12T20:42:51.167Z,1.20
2023-01-12T20:45:21.116Z,1.00
2023-01-12T20:47:49.772Z,1.98
2023-01-12T20:50:19.016Z,0.93
2023-01-12T20:52:49.111Z,0.70
2023-01-12T20:55:17.775Z,0.90
2023-01-12T20:57:46.227Z,1.30
2023-01-12T21:00:15.321Z,1.35
2023-01-12T21:02:51.038Z,1.38
2023-01-12T21:05:19.771Z,0.95
2023-01-12T21:07:54.237Z,0.90
2023-01-12T21:10:30.408Z,0.90
2023-01-12T21:12:58.932Z,0.88
2023-01-12T21:15:30.582Z,1.20
2023-01-12T21:18:08.832Z,1.43
2023-01-12T21:20:37.406Z,1.27
2023-01-12T21:23:05.810Z,1.00
2023-01-12T21:25:34.431Z,1.00
2023-01-12T21:28:05.098Z,1.25
2023-01-12T21:30:33.580Z,0.98
2023-01-12T21:33:08.531Z,1.20
2023-01-12T21:35:40.163Z,0.88
2023-01-12T21:38:08.635Z,1.00
2023-01-12T21:40:39.220Z,0.82
2023-01-12T21:43:11.797Z,0.90
2023-01-12T21:45:48.808Z,1.10
2023-01-12T21:48:23.019Z,1.10
2023-01-12T21:50:51.582Z,1.35
2023-01-12T21:53:24.066Z,0.98
2023-01-12T21:56:16.445Z,1.35
2023-01-12T21:58:47.572Z,1.13
2023-01-12T22:01:16.520Z,0.70
2023-01-12T22:03:46.540Z,1.00
2023-01-12T22:06:18.763Z,1.00
2023-01-12T22:08:47.288Z,0.80
2023-01-12T22:11:19.459Z,0.70
2023-01-12T22:13:48.648Z,1.10
2023-01-12T22:16:18.278Z,1.20
2023-01-12T22:18:51.346Z,1.30
2023-01-12T22:21:22.021Z,0.88
2023-01-12T22:23:50.479Z,1.02
2023-01-12T22:26:19.776Z,0.85
2023-01-12T22:28:49.781Z,1.20
2023-01-12T22:31:21.561Z,0.85
2023-01-12T22:34:05.392Z,0.90
2023-01-12T22:36:42.869Z,1.20
2023-01-12T22:39:12.993Z,0.95
2023-01-12T22:41:43.159Z,0.80
2023-01-12T22:44:16.846Z,0.73
2023-01-12T22:46:45.283Z,0.90
2023-01-12T22:49:14.999Z,0.70
2023-01-12T22:51:43.546Z,0.90
2023-01-12T22:54:11.860Z,0.80
2023-01-12T22:56:43.982Z,0.90
2023-01-12T22:59:20.863Z,0.80
2023-01-12T23:01:49.599Z,0.73
2023-01-12T23:04:22.896Z,0.60
2023-01-12T23:07:06.304Z,0.75
2023-01-12T23:09:39.799Z,0.70
2023-01-12T23:12:08.598Z,0.60
2023-01-12T23:14:37.383Z,0.80
2023-01-12T23:17:11.991Z,0.52
2023-01-12T23:19:45.335Z,0.90
2023-01-12T23:22:24.798Z,0.50
2023-01-12T23:24:53.211Z,0.63
2023-01-12T23:27:23.751Z,0.50
2023-01-12T23:30:38.095Z,0.47
2023-01-12T23:33:52.674Z,0.65
2023-01-12T23:36:42.522Z,0.60
2023-01-12T23:39:20.525Z,0.50
2023-01-12T23:41:52.122Z,0.60
2023-01-12T23:44:42.472Z,0.88
2023-01-12T23:47:15.714Z,0.70
2023-01-12T23:49:47.260Z,0.77
2023-01-12T23:52:22.961Z,0.52
2023-01-12T23:54:58.314Z,0.70
2023-01-12T23:57:31.878Z,0.68
